Meteo Giornale » Osservazioni meteo Repubblica Ceca » Brno-Turany

ore: 19:00 - Osservazioni Meteo Brno-Turany
Lat. 49° 9' N Lon. 16° 42' E Alt. 241 metri s.l.m.

sereno

23 °C

Sereno

Temp. 24 Ore

15 °C

26 °C

Nord/NOvest

13 Km/h

Dew point 8 °C

Umidità 38 %

Visibilità  10 Km

Il sole sorge alle ore 06:09

Il sole tramonta alle ore 19:36

Data e Ora Cielo e Fenomeni T °C DP °C Um. % Pres. hPa Vis. km Vento km/h
Oggi h: 19:00 sereno Sereno 23 8 38 1020 10 N/NO 13
Oggi h: 18:30 sereno Sereno 24 8 35 1020 10 N 14.8
Oggi h: 18:00 sereno Sereno 24 7 33 1020 10 N/NO 14.8
Oggi h: 17:30 sereno Sereno 24 7 33 1020 10 NO 14.8
Oggi h: 17:00 sereno Sereno 25 7 31 1020 10 NO 18.5
Oggi h: 16:30 sereno Sereno 25 8 33 1020 10 O/NO 16.7
Oggi h: 16:00 sereno Sereno 25 7 31 1020 10 O/NO 20.3
Oggi h: 15:30 sereno Sereno 24 7 33 1020 10 NO 22.2
Oggi h: 15:00 sereno Sereno 24 7 33 1020 10 O/NO 24
Oggi h: 14:30 sereno Sereno 26 8 31 1020 10 O 18.5
Oggi h: 14:00 sereno Sereno 23 9 40 1020 10 O/NO 18.5
Oggi h: 13:30 sereno Sereno 24 7 33 1020 10 O/NO 25.9
Oggi h: 13:00 sereno Sereno 24 10 41 1020 10 O/NO 16.7
Oggi h: 12:30 sereno Sereno 22 10 46 1020 10 O/NO 14.8
Oggi h: 12:00 sereno Sereno 24 10 41 1020 10 O/NO 22.2
Oggi h: 11:30 sereno Sereno 23 10 43 1020 10 O/NO 22.2
Oggi h: 11:00 poco_nuvoloso Poco Nuvoloso 23 10 43 1020 10 O/NO 24
Oggi h: 10:30 poco_nuvoloso Poco Nuvoloso 21 11 52 1020 10 O/NO 20.3
Oggi h: 10:00 nuvoloso Nuvoloso 21 11 52 1020 10 O/NO 18.5
Oggi h: 09:30 poco_nuvoloso Poco Nuvoloso 21 11 52 1020 10 O/NO 18.5
Oggi h: 09:00 poco_nuvoloso Poco Nuvoloso 20 11 56 1020 10 O/NO 22.2
Oggi h: 08:30 sereno Sereno 19 11 59 1020 10 O/NO 22.2
Oggi h: 08:00 sereno Sereno 18 11 63 1019 10 NO 9.3
Oggi h: 07:30 sereno Sereno 18 11 63 1019 10 NO 9.3
Oggi h: 07:00 sereno Sereno 16 11 72 1019 10 O/SO 11.1
Oggi h: 06:30 sereno Sereno 15 10 72 1019 10 N 5.5
Oggi h: 06:00 sereno Sereno 16 11 72 1018 10 O/NO 13
Oggi h: 05:30 sereno Sereno 16 11 72 1018 10 N 5.5
Oggi h: 05:00 sereno Sereno 16 11 72 1018 10 N 5.5
Oggi h: 04:30 sereno Sereno 16 11 72 1018 10 N 5.5
Oggi h: 04:00 sereno Sereno 16 12 77 1018 10 N 1.8
Oggi h: 03:30 sereno Sereno 15 12 82 1018 10 N 5.5
Oggi h: 03:00 sereno Sereno 15 12 82 1018 10 N 1.8
Oggi h: 02:30 sereno Sereno 17 12 72 1017 10 N 1.8
Oggi h: 02:00 sereno Sereno 17 12 72 1017 10 N 1.8
Oggi h: 01:30 sereno Sereno 19 12 63 1018 10 N 5.5
Oggi h: 01:00 sereno Sereno 20 12 59 1018 10 N 5.5
Oggi h: 00:30 sereno Sereno 19 12 63 1018 10 N 3.7
Oggi h: 00:00 sereno Sereno 19 12 63 1018 10 N 3.7
Ieri h: 23:30 sereno Sereno 20 11 56 1018 10 N 5.5
Ieri h: 23:00 sereno Sereno 20 11 56 1017 10 O 11.1
Ieri h: 22:30 sereno Sereno 20 11 56 1017 10 N 5.5
Ieri h: 22:00 sereno Sereno 22 10 46 1016 10 N/NO 9.3
Ieri h: 21:30 sereno Sereno 22 10 46 1016 10 N 5.5
Ieri h: 21:00 sereno Sereno 23 10 43 1016 10 NO 11.1
Ieri h: 20:30 sereno Sereno 24 10 41 1015 10 N/NO 13
Ieri h: 20:00 sereno Sereno 24 10 41 1015 10 NO 13